createdAt,value
2019-04-11T00:00:43.829Z,8.60
2019-04-11T00:03:11.262Z,8.50
2019-04-11T00:05:37.624Z,8.50
2019-04-11T00:08:03.864Z,8.40
2019-04-11T00:10:31.262Z,8.40
2019-04-11T00:12:59.476Z,8.40
2019-04-11T00:15:26.609Z,8.30
2019-04-11T00:17:53.027Z,8.40
2019-04-11T00:20:20.109Z,8.40
2019-04-11T00:22:46.501Z,8.50
2019-04-11T00:25:13.565Z,8.40
2019-04-11T00:27:39.996Z,8.40
2019-04-11T00:30:07.993Z,8.40
2019-04-11T00:32:34.277Z,8.30
2019-04-11T00:35:01.545Z,8.30
2019-04-11T00:37:27.866Z,8.30
2019-04-11T00:39:54.185Z,8.30
2019-04-11T00:42:20.789Z,8.30
2019-04-11T00:44:48.026Z,8.30
2019-04-11T00:47:15.142Z,8.30
2019-04-11T00:49:41.433Z,8.30
2019-04-11T00:52:08.480Z,8.30
2019-04-11T00:54:35.265Z,8.40
2019-04-11T00:57:01.688Z,8.40
2019-04-11T00:59:27.854Z,8.30
2019-04-11T01:01:54.062Z,8.30
2019-04-11T01:04:21.224Z,8.20
2019-04-11T01:06:47.388Z,8.20
2019-04-11T01:09:13.586Z,8.20
2019-04-11T01:11:40.372Z,8.20
2019-04-11T01:14:07.754Z,8.10
2019-04-11T01:16:42.949Z,8.10
2019-04-11T01:19:09.384Z,8.10
2019-04-11T01:21:35.546Z,8.10
2019-04-11T01:24:01.864Z,8.20
2019-04-11T01:26:28.292Z,8.10
2019-04-11T01:28:55.425Z,8.10
2019-04-11T01:31:23.656Z,8.10
2019-04-11T01:33:49.864Z,7.90
2019-04-11T01:36:17.045Z,7.90
2019-04-11T01:38:46.328Z,7.90
2019-04-11T01:41:12.621Z,7.90
2019-04-11T01:43:39.887Z,7.90
2019-04-11T01:46:07.763Z,7.80
2019-04-11T01:48:39.632Z,7.80
2019-04-11T01:51:05.915Z,7.70
2019-04-11T01:53:33.092Z,7.70
2019-04-11T01:55:59.378Z,7.70
2019-04-11T01:58:26.710Z,7.60
2019-04-11T02:00:58.803Z,7.50
2019-04-11T02:03:43.946Z,7.50
2019-04-11T02:06:10.247Z,7.40
2019-04-11T02:08:37.614Z,7.30
2019-04-11T02:11:03.993Z,7.30
2019-04-11T02:13:30.160Z,7.30
2019-04-11T02:15:58.845Z,7.20
2019-04-11T02:18:25.610Z,7.20
2019-04-11T02:20:51.948Z,7.20
2019-04-11T02:23:26.764Z,7.20
2019-04-11T02:26:07.128Z,7.10
2019-04-11T02:28:33.609Z,7.10
2019-04-11T02:31:00.200Z,6.90
2019-04-11T02:33:27.020Z,6.90
2019-04-11T02:35:54.270Z,6.70
2019-04-11T02:38:21.505Z,6.70
2019-04-11T02:40:49.842Z,6.70
2019-04-11T02:43:17.642Z,6.70
2019-04-11T02:45:55.646Z,6.70
2019-04-11T02:48:13.785Z,6.70
2019-04-11T02:50:42.707Z,6.60
2019-04-11T02:53:09.639Z,6.60
2019-04-11T02:55:37.805Z,6.50
2019-04-11T02:58:25.412Z,6.50
2019-04-11T03:00:53.787Z,6.40
2019-04-11T03:03:21.112Z,6.40
2019-04-11T03:05:47.587Z,6.40
2019-04-11T03:08:18.384Z,6.30
2019-04-11T03:10:43.011Z,6.30
2019-04-11T03:13:10.552Z,6.30
2019-04-11T03:15:48.646Z,6.30
2019-04-11T03:18:09.211Z,6.30
2019-04-11T03:20:41.006Z,6.30
2019-04-11T03:23:05.733Z,6.30
2019-04-11T03:25:30.672Z,6.30
2019-04-11T03:27:58.994Z,6.30
2019-04-11T03:30:42.401Z,6.20
2019-04-11T03:33:58.117Z,6.20
2019-04-11T03:38:12.513Z,6.20
2019-04-11T03:40:36.808Z,6.20
2019-04-11T03:43:01.268Z,6.30
2019-04-11T03:45:38.551Z,6.20
2019-04-11T03:48:04.306Z,6.20
2019-04-11T03:50:19.016Z,6.20
2019-04-11T03:52:45.058Z,6.20
2019-04-11T03:55:13.191Z,6.20
2019-04-11T03:57:41.682Z,6.20
2019-04-11T04:00:10.328Z,6.10
2019-04-11T04:02:39.131Z,6.10
2019-04-11T04:05:26.822Z,6.10
2019-04-11T04:07:55.266Z,5.90
2019-04-11T04:10:25.633Z,5.80
2019-04-11T04:12:53.543Z,5.70
2019-04-11T04:15:51.636Z,5.60
2019-04-11T04:18:10.192Z,5.60
2019-04-11T04:20:46.068Z,5.60
2019-04-11T04:23:16.599Z,5.60
2019-04-11T04:26:06.178Z,5.60
2019-04-11T04:28:33.826Z,5.60
2019-04-11T04:31:02.089Z,5.60
2019-04-11T04:33:29.326Z,5.50
2019-04-11T04:35:58.089Z,5.50
2019-04-11T04:38:25.010Z,5.60
2019-04-11T04:41:07.361Z,5.70
2019-04-11T04:43:25.183Z,5.60
2019-04-11T04:46:08.830Z,5.70
2019-04-11T04:48:23.062Z,5.50
2019-04-11T04:50:48.908Z,5.60
2019-04-11T04:53:30.965Z,5.60
2019-04-11T04:55:57.639Z,5.60
2019-04-11T04:58:24.872Z,5.60
2019-04-11T05:00:53.813Z,5.70
2019-04-11T05:03:20.212Z,5.70
2019-04-11T05:05:48.536Z,5.70
2019-04-11T05:08:16.436Z,5.70
2019-04-11T05:10:42.776Z,5.60
2019-04-11T05:13:09.934Z,5.50
2019-04-11T05:15:36.636Z,5.50
2019-04-11T05:18:04.145Z,5.50
2019-04-11T05:20:30.581Z,5.50
2019-04-11T05:22:57.971Z,5.40
2019-04-11T05:25:24.366Z,5.50
2019-04-11T05:27:50.653Z,5.50
2019-04-11T05:30:16.953Z,5.50
2019-04-11T05:32:43.325Z,5.30
2019-04-11T05:35:11.053Z,5.40
2019-04-11T05:37:37.800Z,5.50
2019-04-11T05:40:05.234Z,5.50
2019-04-11T05:42:31.546Z,5.50
2019-04-11T05:44:59.121Z,5.40
2019-04-11T05:47:25.640Z,5.40
2019-04-11T05:50:07.591Z,5.50
2019-04-11T05:52:34.075Z,5.50
2019-04-11T05:55:02.933Z,5.70
2019-04-11T05:57:35.318Z,5.70
2019-04-11T05:59:57.854Z,5.60
2019-04-11T06:02:27.389Z,5.60
2019-04-11T06:04:58.236Z,5.60
2019-04-11T06:07:27.256Z,5.70
2019-04-11T06:09:56.515Z,5.60
2019-04-11T06:12:33.790Z,5.70
2019-04-11T06:15:08.078Z,5.70
2019-04-11T06:17:34.656Z,5.70
2019-04-11T06:20:19.941Z,5.60
2019-04-11T06:22:51.418Z,5.70
2019-04-11T06:25:25.811Z,5.70
2019-04-11T06:27:55.835Z,5.70
2019-04-11T06:30:36.700Z,5.70
2019-04-11T06:33:27.159Z,5.60
2019-04-11T06:36:13.896Z,5.50
2019-04-11T06:38:49.141Z,5.50
2019-04-11T06:41:36.819Z,5.50
2019-04-11T06:47:05.235Z,5.60
2019-04-11T06:49:36.373Z,5.60
2019-04-11T06:52:04.608Z,5.50
2019-04-11T06:54:41.790Z,5.40
2019-04-11T06:57:13.898Z,5.40
2019-04-11T06:59:42.978Z,5.50
2019-04-11T07:02:17.964Z,5.40
2019-04-11T07:04:44.062Z,5.40
2019-04-11T07:07:12.984Z,5.40
2019-04-11T07:09:45.027Z,5.50
2019-04-11T07:12:13.429Z,5.50
2019-04-11T07:14:45.525Z,5.50
2019-04-11T07:17:31.728Z,5.60
2019-04-11T07:20:06.630Z,5.50
2019-04-11T07:22:51.424Z,5.60
2019-04-11T07:25:22.406Z,5.70
2019-04-11T07:27:57.242Z,5.70
2019-04-11T07:30:42.020Z,5.60
2019-04-11T07:33:11.250Z,5.60
2019-04-11T07:35:47.647Z,5.60
2019-04-11T07:38:16.314Z,5.60
2019-04-11T07:40:44.489Z,5.70
2019-04-11T07:43:13.521Z,5.60
2019-04-11T07:45:41.688Z,5.60
2019-04-11T07:48:12.918Z,5.60
2019-04-11T07:50:39.941Z,5.60
2019-04-11T07:53:08.647Z,5.60
2019-04-11T07:55:36.976Z,5.50
2019-04-11T07:58:23.937Z,5.50
2019-04-11T08:00:59.277Z,5.60
2019-04-11T08:03:27.758Z,5.70
2019-04-11T08:06:11.159Z,5.70
2019-04-11T08:08:56.335Z,5.60
2019-04-11T08:11:25.542Z,5.60
2019-04-11T08:13:56.745Z,5.80
2019-04-11T08:16:24.840Z,5.70
2019-04-11T08:19:09.799Z,5.80
2019-04-11T08:21:38.696Z,5.80
2019-04-11T08:24:18.962Z,5.90
2019-04-11T08:27:05.122Z,6.10
2019-04-11T08:29:32.328Z,6.10
2019-04-11T08:32:17.670Z,6.30
2019-04-11T08:34:53.422Z,6.50
2019-04-11T08:37:31.575Z,6.60
2019-04-11T08:39:59.593Z,6.80
2019-04-11T08:42:37.776Z,7.40
2019-04-11T08:45:08.145Z,7.90
2019-04-11T08:47:44.398Z,8.30
2019-04-11T08:50:06.089Z,8.50
2019-04-11T08:52:34.355Z,9.00
2019-04-11T08:55:02.438Z,8.50
2019-04-11T08:57:31.841Z,9.00
2019-04-11T09:00:13.676Z,9.40
2019-04-11T09:02:40.912Z,8.70
2019-04-11T09:05:24.993Z,8.50
2019-04-11T09:07:54.111Z,9.00
2019-04-11T09:10:24.044Z,9.10
2019-04-11T09:13:04.469Z,9.00
2019-04-11T09:15:50.653Z,9.30
2019-04-11T09:18:17.764Z,9.20
2019-04-11T09:21:04.306Z,9.60
2019-04-11T09:23:30.808Z,10.00
2019-04-11T09:26:01.726Z,9.80
2019-04-11T09:28:30.152Z,9.70
2019-04-11T09:30:58.553Z,9.90
2019-04-11T09:33:43.145Z,9.70
2019-04-11T09:36:29.039Z,9.70
2019-04-11T09:39:15.060Z,10.40
2019-04-11T09:41:44.825Z,11.70
2019-04-11T09:44:16.915Z,12.40
2019-04-11T09:47:03.440Z,11.70
2019-04-11T09:49:31.665Z,11.80
2019-04-11T09:52:00.441Z,11.70
2019-04-11T09:54:28.773Z,12.20
2019-04-11T09:57:13.571Z,12.70
2019-04-11T09:59:45.533Z,12.70
2019-04-11T10:02:31.076Z,14.00
2019-04-11T10:05:01.230Z,14.50
2019-04-11T10:07:44.058Z,15.50
2019-04-11T10:10:19.023Z,16.70
2019-04-11T10:13:04.636Z,17.30
2019-04-11T10:15:33.743Z,15.90
2019-04-11T10:18:25.185Z,15.70
2019-04-11T10:20:48.690Z,14.80
2019-04-11T10:23:23.051Z,15.80
2019-04-11T10:25:50.218Z,15.40
2019-04-11T10:28:36.112Z,16.20
2019-04-11T10:31:10.486Z,16.60
2019-04-11T10:36:36.964Z,20.00
2019-04-11T10:39:15.305Z,19.90
2019-04-11T10:41:46.316Z,17.80
2019-04-11T10:44:16.000Z,16.60
2019-04-11T10:46:44.241Z,15.60
2019-04-11T10:49:15.360Z,14.10
2019-04-11T10:51:53.898Z,14.40
2019-04-11T10:54:20.213Z,15.60
2019-04-11T10:56:54.101Z,18.30
2019-04-11T10:59:25.064Z,19.80
2019-04-11T11:02:01.279Z,19.10
2019-04-11T11:04:29.444Z,18.80
2019-04-11T11:06:57.033Z,18.00
2019-04-11T11:09:44.334Z,17.00
2019-04-11T11:12:19.057Z,16.00
2019-04-11T11:14:47.362Z,16.70
2019-04-11T11:17:51.692Z,18.40
2019-04-11T11:20:11.955Z,18.40
2019-04-11T11:22:49.928Z,17.20
2019-04-11T11:25:30.936Z,15.70
2019-04-11T11:27:57.912Z,15.30
2019-04-11T11:30:31.547Z,14.90
2019-04-11T11:32:58.117Z,15.30
2019-04-11T11:35:32.339Z,15.70
2019-04-11T11:37:59.704Z,15.30
2019-04-11T11:40:28.001Z,14.90
2019-04-11T11:43:08.668Z,14.60
2019-04-11T11:45:37.407Z,14.30
2019-04-11T11:48:12.836Z,14.30
2019-04-11T11:50:37.600Z,14.10
2019-04-11T11:53:18.471Z,14.30
2019-04-11T11:55:45.461Z,13.80
2019-04-11T11:58:16.837Z,14.20
2019-04-11T12:00:43.296Z,14.50
2019-04-11T12:03:12.944Z,14.50
2019-04-11T12:05:47.961Z,14.30
2019-04-11T12:08:22.797Z,14.80
2019-04-11T12:10:54.762Z,14.30
2019-04-11T12:13:41.449Z,14.10
2019-04-11T12:16:10.029Z,14.60
2019-04-11T12:18:46.554Z,14.00
2019-04-11T12:21:18.563Z,13.50
2019-04-11T12:23:58.084Z,13.20
2019-04-11T12:26:20.282Z,13.20
2019-04-11T12:28:52.196Z,13.00
2019-04-11T12:31:42.294Z,13.30
2019-04-11T12:34:14.293Z,12.90
2019-04-11T12:36:44.715Z,12.50
2019-04-11T12:39:29.401Z,12.90
2019-04-11T12:42:00.509Z,12.30
2019-04-11T12:44:29.494Z,12.10
2019-04-11T12:46:59.567Z,12.20
2019-04-11T12:49:27.781Z,11.90
2019-04-11T12:52:12.432Z,11.90
2019-04-11T12:54:40.896Z,12.00
2019-04-11T12:57:12.052Z,11.90
2019-04-11T12:59:38.216Z,12.00
2019-04-11T13:02:06.516Z,12.40
2019-04-11T13:04:32.855Z,12.50
2019-04-11T13:07:11.503Z,12.60
2019-04-11T13:09:39.760Z,12.40
2019-04-11T13:12:18.852Z,12.30
2019-04-11T13:15:03.744Z,11.90
2019-04-11T13:17:41.407Z,12.10
2019-04-11T13:20:26.456Z,12.20
2019-04-11T13:22:54.533Z,12.50
2019-04-11T13:25:39.030Z,12.90
2019-04-11T13:28:06.185Z,12.70
2019-04-11T13:30:40.173Z,12.90
2019-04-11T13:33:06.936Z,13.00
2019-04-11T13:35:41.333Z,13.00
2019-04-11T13:38:10.500Z,12.90
2019-04-11T13:40:44.643Z,12.90
2019-04-11T13:43:15.457Z,12.80
2019-04-11T13:46:00.300Z,12.50
2019-04-11T13:48:45.152Z,12.30
2019-04-11T13:51:31.719Z,12.30
2019-04-11T13:54:17.046Z,12.10
2019-04-11T13:57:02.307Z,12.10
2019-04-11T13:59:36.395Z,12.10
2019-04-11T14:02:15.511Z,12.20
2019-04-11T14:04:59.194Z,12.00
2019-04-11T14:07:33.090Z,12.00
2019-04-11T14:10:02.225Z,12.00
2019-04-11T14:12:33.468Z,11.70
2019-04-11T14:15:06.981Z,11.70
2019-04-11T14:17:35.303Z,12.00
2019-04-11T14:20:13.245Z,12.10
2019-04-11T14:22:43.426Z,12.10
2019-04-11T14:25:20.362Z,12.00
2019-04-11T14:27:48.531Z,11.90
2019-04-11T14:30:19.597Z,11.90
2019-04-11T14:35:34.730Z,11.40
2019-04-11T14:38:02.857Z,11.20
2019-04-11T14:40:47.737Z,11.00
2019-04-11T14:43:18.661Z,11.30
2019-04-11T14:48:43.076Z,11.20
2019-04-11T14:51:20.576Z,11.40
2019-04-11T14:53:57.545Z,11.60
2019-04-11T14:56:27.164Z,11.60
2019-04-11T14:58:58.445Z,11.40
2019-04-11T15:01:28.181Z,11.40
2019-04-11T15:03:56.216Z,11.80
2019-04-11T15:06:24.321Z,11.70
2019-04-11T15:08:54.905Z,11.80
2019-04-11T15:11:23.041Z,11.60
2019-04-11T15:13:51.125Z,11.50
2019-04-11T15:16:21.994Z,11.60
2019-04-11T15:18:50.063Z,11.50
2019-04-11T15:21:18.214Z,11.40
2019-04-11T15:23:45.743Z,11.40
2019-04-11T15:26:30.281Z,11.30
2019-04-11T15:28:58.382Z,11.20
2019-04-11T15:31:38.814Z,11.30
2019-04-11T15:34:16.517Z,11.30
2019-04-11T15:36:47.487Z,11.20
2019-04-11T15:39:24.792Z,10.80
2019-04-11T15:42:00.336Z,10.80
2019-04-11T15:44:25.751Z,10.80
2019-04-11T15:46:54.157Z,10.80
2019-04-11T15:49:31.121Z,10.60
2019-04-11T15:52:00.693Z,10.50
2019-04-11T15:54:31.537Z,10.50
2019-04-11T15:56:59.656Z,10.70
2019-04-11T15:59:43.724Z,10.70
2019-04-11T16:02:18.509Z,10.80
2019-04-11T16:04:46.568Z,10.70
2019-04-11T16:07:14.779Z,10.50
2019-04-11T16:09:43.244Z,10.40
2019-04-11T16:12:18.321Z,10.40
2019-04-11T16:14:44.813Z,10.30
2019-04-11T16:17:16.038Z,10.30
2019-04-11T16:19:47.545Z,10.30
2019-04-11T16:22:30.899Z,10.30
2019-04-11T16:24:58.968Z,10.30
2019-04-11T16:27:42.736Z,10.30
2019-04-11T16:30:22.256Z,10.30
2019-04-11T16:33:05.766Z,10.30
2019-04-11T16:35:33.841Z,10.20
2019-04-11T16:38:04.938Z,10.00
2019-04-11T16:40:50.912Z,10.10
2019-04-11T16:43:17.730Z,10.00
2019-04-11T16:45:46.027Z,9.90
2019-04-11T16:48:12.219Z,10.00
2019-04-11T16:53:21.684Z,9.90
2019-04-11T16:55:47.882Z,9.90
2019-04-11T16:58:17.033Z,9.80
2019-04-11T17:00:42.177Z,9.90
2019-04-11T17:03:08.474Z,9.80
2019-04-11T17:05:36.585Z,9.80
2019-04-11T17:08:25.715Z,9.70
2019-04-11T17:11:10.117Z,9.60
2019-04-11T17:13:36.288Z,9.60
2019-04-11T17:16:03.854Z,9.70
2019-04-11T17:18:33.970Z,9.50
2019-04-11T17:20:58.150Z,9.40
2019-04-11T17:23:24.389Z,9.30
2019-04-11T17:25:52.980Z,9.30
2019-04-11T17:28:22.753Z,9.20
2019-04-11T17:30:48.204Z,9.20
2019-04-11T17:33:14.401Z,9.30
2019-04-11T17:35:40.632Z,9.20
2019-04-11T17:38:08.073Z,9.10
2019-04-11T17:40:35.064Z,9.00
2019-04-11T17:43:02.664Z,9.00
2019-04-11T17:45:28.832Z,9.00
2019-04-11T17:47:57.294Z,9.10
2019-04-11T17:50:23.328Z,9.00
2019-04-11T17:52:49.612Z,8.90
2019-04-11T17:55:15.801Z,8.90
2019-04-11T17:57:41.951Z,8.90
2019-04-11T18:00:10.448Z,8.90
2019-04-11T18:02:39.044Z,8.90
2019-04-11T18:05:05.213Z,8.80
2019-04-11T18:07:33.389Z,8.80
2019-04-11T18:09:59.618Z,8.70
2019-04-11T18:12:26.230Z,8.70
2019-04-11T18:14:53.069Z,8.60
2019-04-11T18:17:19.268Z,8.70
2019-04-11T18:19:45.456Z,8.60
2019-04-11T18:22:13.790Z,8.70
2019-04-11T18:24:41.630Z,8.70
2019-04-11T18:27:07.784Z,8.60
2019-04-11T18:29:33.955Z,8.60
2019-04-11T18:32:00.223Z,8.70
2019-04-11T18:34:26.388Z,8.70
2019-04-11T18:36:52.548Z,8.70
2019-04-11T18:39:18.729Z,8.60
2019-04-11T18:41:44.894Z,8.40
2019-04-11T18:44:11.096Z,8.40
2019-04-11T18:46:37.287Z,8.40
2019-04-11T18:49:03.630Z,8.30
2019-04-11T18:51:30.504Z,8.30
2019-04-11T18:53:58.043Z,8.30
2019-04-11T18:56:24.249Z,8.30
2019-04-11T18:58:50.464Z,8.20
2019-04-11T19:01:17.994Z,8.20
2019-04-11T19:03:44.304Z,8.10
2019-04-11T19:06:13.094Z,8.10
2019-04-11T19:08:43.115Z,8.00
2019-04-11T19:11:07.814Z,8.00
2019-04-11T19:13:33.973Z,8.00
2019-04-11T19:16:00.216Z,7.90
2019-04-11T19:18:26.405Z,7.90
2019-04-11T19:20:52.662Z,7.90
2019-04-11T19:23:18.836Z,7.80
2019-04-11T19:25:45.305Z,7.90
2019-04-11T19:28:11.611Z,7.80
2019-04-11T19:30:37.771Z,7.70
2019-04-11T19:33:05.048Z,7.70
2019-04-11T19:35:31.204Z,7.70
2019-04-11T19:37:58.089Z,7.60
2019-04-11T19:40:24.256Z,7.60
2019-04-11T19:42:50.740Z,7.60
2019-04-11T19:45:19.200Z,7.60
2019-04-11T19:47:45.016Z,7.60
2019-04-11T19:50:11.398Z,7.50
2019-04-11T19:52:45.111Z,7.50
2019-04-11T19:55:20.353Z,7.50
2019-04-11T19:57:46.505Z,7.50
2019-04-11T20:00:13.912Z,7.50
2019-04-11T20:02:40.201Z,7.40
2019-04-11T20:05:06.360Z,7.40
2019-04-11T20:07:32.620Z,7.40
2019-04-11T20:10:00.814Z,7.40
2019-04-11T20:12:27.730Z,7.40
2019-04-11T20:14:54.963Z,7.40
2019-04-11T20:17:21.388Z,7.40
2019-04-11T20:19:47.558Z,7.40
2019-04-11T20:22:13.791Z,7.40
2019-04-11T20:24:40.112Z,7.40
2019-04-11T20:27:06.288Z,7.30
2019-04-11T20:29:32.482Z,7.30
2019-04-11T20:31:58.665Z,7.30
2019-04-11T20:34:27.841Z,7.20
2019-04-11T20:36:52.981Z,7.20
2019-04-11T20:39:19.157Z,7.20
2019-04-11T20:41:45.320Z,7.20
2019-04-11T20:44:11.495Z,7.20
2019-04-11T20:46:37.768Z,7.20
2019-04-11T20:49:03.953Z,7.20
2019-04-11T20:51:30.131Z,7.20
2019-04-11T20:53:56.312Z,7.20
2019-04-11T20:56:24.314Z,7.20
2019-04-11T20:58:50.540Z,7.10
2019-04-11T21:01:16.694Z,7.10
2019-04-11T21:03:42.923Z,7.10
2019-04-11T21:06:10.148Z,7.10
2019-04-11T21:08:36.765Z,7.00
2019-04-11T21:11:04.666Z,7.00
2019-04-11T21:13:31.176Z,6.90
2019-04-11T21:15:57.323Z,7.00
2019-04-11T21:18:25.625Z,7.00
2019-04-11T21:20:55.085Z,6.90
2019-04-11T21:23:24.599Z,7.00
2019-04-11T21:25:47.744Z,7.00
2019-04-11T21:28:13.912Z,7.00
2019-04-11T21:30:40.080Z,6.90
2019-04-11T21:33:06.250Z,6.90
2019-04-11T21:35:33.525Z,6.90
2019-04-11T21:38:00.870Z,6.80
2019-04-11T21:40:27.541Z,6.80
2019-04-11T21:42:53.737Z,6.90
2019-04-11T21:45:19.886Z,6.80
2019-04-11T21:47:46.100Z,6.70
2019-04-11T21:50:12.715Z,6.70
2019-04-11T21:52:43.387Z,6.70
2019-04-11T21:55:07.757Z,6.70
2019-04-11T21:57:33.917Z,6.70
2019-04-11T22:00:04.087Z,6.80
2019-04-11T22:02:32.172Z,6.80
2019-04-11T22:04:58.941Z,6.80
2019-04-11T22:07:25.668Z,6.70
2019-04-11T22:09:51.936Z,6.80
2019-04-11T22:12:18.096Z,6.70
2019-04-11T22:14:44.292Z,6.70
2019-04-11T22:17:10.457Z,6.60
2019-04-11T22:19:36.652Z,6.70
2019-04-11T22:22:02.842Z,6.70
2019-04-11T22:24:29.091Z,6.60
2019-04-11T22:26:55.277Z,6.60
2019-04-11T22:29:24.835Z,6.60
2019-04-11T22:31:49.632Z,6.60
2019-04-11T22:34:32.918Z,6.60
2019-04-11T22:36:59.950Z,6.60
2019-04-11T22:39:29.031Z,6.50
2019-04-11T22:41:55.524Z,6.50
2019-04-11T22:44:21.699Z,6.50
2019-04-11T22:46:47.867Z,6.50
2019-04-11T22:49:14.030Z,6.50
2019-04-11T22:51:43.502Z,6.40
2019-04-11T22:54:08.354Z,6.30
2019-04-11T22:56:34.534Z,6.40
2019-04-11T22:59:00.704Z,6.40
2019-04-11T23:01:26.852Z,6.30
2019-04-11T23:04:00.772Z,6.30
2019-04-11T23:06:26.927Z,6.30
2019-04-11T23:08:53.099Z,6.30
2019-04-11T23:11:19.255Z,6.30
2019-04-11T23:13:46.577Z,6.30
2019-04-11T23:16:14.439Z,6.30
2019-04-11T23:18:41.836Z,6.30
2019-04-11T23:21:08.954Z,6.30
2019-04-11T23:23:35.133Z,6.30
2019-04-11T23:26:01.278Z,6.30
2019-04-11T23:28:27.468Z,6.30
2019-04-11T23:30:53.651Z,6.30
2019-04-11T23:33:21.525Z,6.30
2019-04-11T23:35:48.886Z,6.30
2019-04-11T23:38:16.071Z,6.30
2019-04-11T23:40:42.237Z,6.30
2019-04-11T23:43:08.399Z,6.30
2019-04-11T23:45:34.571Z,6.30
2019-04-11T23:48:00.740Z,6.40
2019-04-11T23:50:26.914Z,6.30
2019-04-11T23:52:57.057Z,6.30
2019-04-11T23:55:21.135Z,6.30
2019-04-11T23:57:47.313Z,6.30
